Time;durP1;ratioP1;P1;durP2;ratioP2;P2;SDS_P1;SDS_P2;PMS_P1;PMS_P2;Temp;Humidity;BMP_temperature;BMP_pressure;BME280_temperature;BME280_humidity;BME280_pressure;Samples;Min_cycle;Max_cycle;Signal;HPM_P1;HPM_P2
2021/08/30 00:01:45;;;;;;;42.63;23.50;;;;;;;;;;5091715;28;20118;-69
2021/08/30 00:04:10;;;;;;;42.23;24.07;;;;;;;;;;5091019;28;20731;-69
2021/08/30 00:06:35;;;;;;;41.27;23.20;;;;;;;;;;5090624;28;20262;-69
2021/08/30 00:09:00;;;;;;;46.00;24.90;;;;;;;;;;5090606;28;20343;-69
2021/08/30 00:11:25;;;;;;;51.40;25.93;;;;;;;;;;5095366;28;20019;-69
2021/08/30 00:13:51;;;;;;;50.50;25.08;;;;;;;;;;5101518;28;20266;-69
2021/08/30 00:16:16;;;;;;;45.15;25.50;;;;;;;;;;5114093;22;20401;-68
2021/08/30 00:18:41;;;;;;;48.35;26.67;;;;;;;;;;5084850;28;20016;-68
2021/08/30 00:21:06;;;;;;;50.15;26.13;;;;;;;;;;5090000;28;20469;-68
2021/08/30 00:23:32;;;;;;;53.97;26.93;;;;;;;;;;5090048;28;20458;-68
2021/08/30 00:25:57;;;;;;;52.45;26.67;;;;;;;;;;5090372;28;20284;-68
2021/08/30 00:28:22;;;;;;;50.05;26.45;;;;;;;;;;5084686;28;20016;-68
2021/08/30 00:30:47;;;;;;;55.90;26.63;;;;;;;;;;5084879;28;20065;-70
2021/08/30 00:33:12;;;;;;;52.85;27.25;;;;;;;;;;5092987;28;20266;-70
2021/08/30 00:35:38;;;;;;;47.13;27.67;;;;;;;;;;5073896;28;20059;-70
2021/08/30 00:38:04;;;;;;;52.10;27.75;;;;;;;;;;5074071;28;20029;-70
2021/08/30 00:40:29;;;;;;;54.97;28.83;;;;;;;;;;5074062;28;20462;-70
2021/08/30 00:42:54;;;;;;;54.63;28.42;;;;;;;;;;5090150;28;20016;-70
2021/08/30 00:45:19;;;;;;;52.93;27.23;;;;;;;;;;5094163;28;20031;-70
2021/08/30 00:47:45;;;;;;;57.65;27.50;;;;;;;;;;5083711;28;20277;-70
2021/08/30 00:50:11;;;;;;;45.65;25.55;;;;;;;;;;5094208;28;20300;-70
2021/08/30 00:52:37;;;;;;;51.08;26.83;;;;;;;;;;5085104;28;20093;-70
2021/08/30 00:55:03;;;;;;;50.60;27.13;;;;;;;;;;5094052;28;20035;-70
2021/08/30 00:57:28;;;;;;;48.30;26.27;;;;;;;;;;5093825;28;20059;-70
2021/08/30 00:59:53;;;;;;;48.38;25.13;;;;;;;;;;5093998;28;20016;-70
2021/08/30 01:02:18;;;;;;;44.90;26.90;;;;;;;;;;5082996;28;20025;-70
2021/08/30 01:04:43;;;;;;;43.20;24.80;;;;;;;;;;5077375;28;20362;-70
2021/08/30 01:07:12;;;;;;;45.20;26.02;;;;;;;;;;5093720;28;20251;-70
2021/08/30 01:09:45;;;;;;;49.85;26.23;;;;;;;;;;5093685;28;20047;-70
2021/08/30 01:12:12;;;;;;;51.40;26.67;;;;;;;;;;5092893;28;20473;-70
2021/08/30 01:14:44;;;;;;;46.05;25.23;;;;;;;;;;5080593;28;20020;-70
2021/08/30 01:17:09;;;;;;;46.08;25.23;;;;;;;;;;5067932;28;20060;-70
2021/08/30 01:19:38;;;;;;;44.92;25.00;;;;;;;;;;5064673;28;20449;-70
2021/08/30 01:22:05;;;;;;;42.55;24.38;;;;;;;;;;5065278;28;20017;-70
2021/08/30 01:24:31;;;;;;;56.65;27.08;;;;;;;;;;5073606;28;20099;-70
2021/08/30 01:26:57;;;;;;;54.08;26.25;;;;;;;;;;5073143;28;20141;-70
2021/08/30 01:29:28;;;;;;;48.17;27.08;;;;;;;;;;5072485;28;20020;-70
2021/08/30 01:31:54;;;;;;;56.13;27.17;;;;;;;;;;5054477;28;20020;-70
2021/08/30 01:34:20;;;;;;;48.92;26.92;;;;;;;;;;5073105;28;20039;-70
2021/08/30 01:36:46;;;;;;;56.47;27.58;;;;;;;;;;5072852;28;20538;-70
2021/08/30 01:39:12;;;;;;;58.95;29.95;;;;;;;;;;5072988;28;20119;-70
2021/08/30 01:41:37;;;;;;;53.88;27.45;;;;;;;;;;5066020;28;20096;-70
2021/08/30 01:44:04;;;;;;;55.78;27.83;;;;;;;;;;5052620;28;20387;-70
2021/08/30 01:46:29;;;;;;;54.20;26.98;;;;;;;;;;5052715;28;20029;-70
2021/08/30 01:48:54;;;;;;;52.22;28.17;;;;;;;;;;5052729;28;20024;-70
2021/08/30 01:51:22;;;;;;;55.40;30.08;;;;;;;;;;5037748;28;20017;-70
2021/08/30 01:53:48;;;;;;;57.15;29.77;;;;;;;;;;5072217;28;20482;-70
2021/08/30 01:56:15;;;;;;;51.75;28.35;;;;;;;;;;5070645;28;20038;-70
2021/08/30 02:01:25;;;;;;;54.85;28.40;;;;;;;;;;5068447;28;20024;-70
2021/08/30 02:03:50;;;;;;;56.72;30.02;;;;;;;;;;5052648;28;20017;-70
2021/08/30 02:06:15;;;;;;;62.85;30.60;;;;;;;;;;5063614;28;20127;-70
2021/08/30 02:08:40;;;;;;;58.63;29.40;;;;;;;;;;5072359;28;20465;-70
2021/08/30 02:11:07;;;;;;;65.55;30.95;;;;;;;;;;5071334;28;20266;-70
2021/08/30 02:13:33;;;;;;;64.30;31.55;;;;;;;;;;5051877;28;20486;-70
2021/08/30 02:15:59;;;;;;;62.17;31.30;;;;;;;;;;5051101;28;20021;-70
2021/08/30 02:18:43;;;;;;;55.10;30.63;;;;;;;;;;5052120;28;20036;-70
2021/08/30 02:21:17;;;;;;;58.15;30.20;;;;;;;;;;5053203;28;20467;-70
2021/08/30 02:24:01;;;;;;;60.78;31.05;;;;;;;;;;5058348;28;20111;-70
2021/08/30 02:26:33;;;;;;;59.08;30.33;;;;;;;;;;5060127;28;20104;-70
2021/08/30 02:29:00;;;;;;;61.22;31.25;;;;;;;;;;5071031;28;20487;-70
2021/08/30 02:31:25;;;;;;;65.15;30.38;;;;;;;;;;5068309;28;20486;-70
2021/08/30 02:33:50;;;;;;;59.78;30.30;;;;;;;;;;5051694;28;20021;-70
2021/08/30 02:36:19;;;;;;;62.00;31.08;;;;;;;;;;5051572;28;20021;-70
2021/08/30 02:38:44;;;;;;;62.15;30.45;;;;;;;;;;5051432;28;20025;-69
2021/08/30 02:41:10;;;;;;;69.85;33.17;;;;;;;;;;5052988;28;20017;-70
2021/08/30 02:43:35;;;;;;;62.42;31.85;;;;;;;;;;5071725;28;20025;-70
2021/08/30 02:46:01;;;;;;;67.78;33.38;;;;;;;;;;5071467;28;20016;-70
2021/08/30 02:48:26;;;;;;;64.35;32.22;;;;;;;;;;5071967;28;20020;-70
2021/08/30 02:50:52;;;;;;;62.40;31.23;;;;;;;;;;5071399;28;20476;-70
2021/08/30 02:53:19;;;;;;;63.90;30.73;;;;;;;;;;5056067;28;20530;-70
2021/08/30 02:55:44;;;;;;;61.75;31.30;;;;;;;;;;5063649;28;20092;-70
2021/08/30 02:58:09;;;;;;;71.03;31.90;;;;;;;;;;5051152;28;20146;-70
2021/08/30 03:00:34;;;;;;;63.88;31.33;;;;;;;;;;5051581;28;20615;-70
2021/08/30 03:03:00;;;;;;;70.43;33.20;;;;;;;;;;5066268;28;20031;-70
2021/08/30 03:05:26;;;;;;;70.00;34.25;;;;;;;;;;5070709;28;20048;-70
2021/08/30 03:07:51;;;;;;;68.25;32.45;;;;;;;;;;5071299;28;20501;-70
2021/08/30 03:10:16;;;;;;;69.70;31.63;;;;;;;;;;5071413;28;20427;-70
2021/08/30 03:12:43;;;;;;;64.10;32.88;;;;;;;;;;5058015;28;20430;-70
2021/08/30 03:15:11;;;;;;;63.22;32.05;;;;;;;;;;5050971;28;20101;-70
2021/08/30 03:17:37;;;;;;;62.78;31.23;;;;;;;;;;5050009;28;20020;-70
2021/08/30 03:20:03;;;;;;;59.33;30.30;;;;;;;;;;5051253;28;20079;-70
2021/08/30 03:22:28;;;;;;;62.15;31.63;;;;;;;;;;5056443;28;20029;-70
2021/08/30 03:24:55;;;;;;;57.45;31.75;;;;;;;;;;5059588;28;20028;-70
2021/08/30 03:27:21;;;;;;;59.03;31.30;;;;;;;;;;5050888;28;20025;-70
2021/08/30 03:29:47;;;;;;;59.50;31.00;;;;;;;;;;5051539;28;20029;-70
2021/08/30 03:32:13;;;;;;;62.90;31.60;;;;;;;;;;5058694;28;20029;-70
2021/08/30 03:34:40;;;;;;;60.15;31.52;;;;;;;;;;5070853;28;20024;-70
2021/08/30 03:37:06;;;;;;;57.03;30.73;;;;;;;;;;5070481;28;20119;-70
2021/08/30 03:39:31;;;;;;;53.90;28.50;;;;;;;;;;5070923;28;20016;-70
2021/08/30 03:41:57;;;;;;;55.43;30.87;;;;;;;;;;5063954;28;20017;-70
2021/08/30 03:44:23;;;;;;;58.88;31.20;;;;;;;;;;5050505;28;20259;-70
2021/08/30 03:46:48;;;;;;;71.03;30.75;;;;;;;;;;5050440;28;20036;-70
2021/08/30 03:49:14;;;;;;;59.60;31.15;;;;;;;;;;5051015;28;20025;-70
2021/08/30 03:51:40;;;;;;;65.03;31.83;;;;;;;;;;5052638;28;20072;-70
2021/08/30 03:54:06;;;;;;;59.78;30.35;;;;;;;;;;5062254;28;20044;-70
2021/08/30 03:56:31;;;;;;;60.60;30.73;;;;;;;;;;5050961;28;20017;-70
2021/08/30 03:58:57;;;;;;;53.97;30.42;;;;;;;;;;5050931;28;20027;-70
2021/08/30 04:01:25;;;;;;;53.83;30.05;;;;;;;;;;5051957;28;20019;-70
2021/08/30 04:03:53;;;;;;;58.85;31.77;;;;;;;;;;5050846;28;20027;-70
2021/08/30 04:06:18;;;;;;;64.63;30.70;;;;;;;;;;5061598;28;20024;-70
2021/08/30 04:08:44;;;;;;;58.85;30.40;;;;;;;;;;5071024;28;20020;-70
2021/08/30 04:11:10;;;;;;;52.72;30.02;;;;;;;;;;5070694;28;20020;-70
2021/08/30 04:13:36;;;;;;;49.97;29.77;;;;;;;;;;5051997;28;20024;-70
2021/08/30 04:16:01;;;;;;;59.67;31.63;;;;;;;;;;5054739;28;20063;-70
2021/08/30 04:18:27;;;;;;;52.88;29.40;;;;;;;;;;5070609;28;20462;-70
2021/08/30 04:20:52;;;;;;;56.78;29.45;;;;;;;;;;5070436;28;20021;-70
2021/08/30 04:23:17;;;;;;;56.90;29.75;;;;;;;;;;5073877;28;20462;-70
2021/08/30 04:25:42;;;;;;;57.33;29.88;;;;;;;;;;5089530;28;20055;-70
2021/08/30 04:28:07;;;;;;;60.30;29.65;;;;;;;;;;5081490;28;20016;-70
2021/08/30 04:30:35;;;;;;;54.13;28.77;;;;;;;;;;5070303;28;20032;-70
2021/08/30 04:33:00;;;;;;;53.63;29.63;;;;;;;;;;5082321;28;20694;-70
2021/08/30 04:35:25;;;;;;;56.95;29.20;;;;;;;;;;5090491;28;20020;-70
2021/08/30 04:37:50;;;;;;;60.47;29.58;;;;;;;;;;5090309;28;20023;-70
2021/08/30 04:40:16;;;;;;;67.63;29.92;;;;;;;;;;5089716;28;20089;-70
2021/08/30 04:42:41;;;;;;;62.42;30.20;;;;;;;;;;5089844;28;20019;-70
2021/08/30 04:45:07;;;;;;;57.35;29.67;;;;;;;;;;5090119;28;20020;-70
2021/08/30 04:47:33;;;;;;;52.70;30.40;;;;;;;;;;5090146;28;20393;-70
2021/08/30 04:49:58;;;;;;;57.95;30.17;;;;;;;;;;5089900;28;20099;-70
2021/08/30 04:52:23;;;;;;;53.23;29.77;;;;;;;;;;5081798;28;20028;-70
2021/08/30 04:54:48;;;;;;;62.93;32.17;;;;;;;;;;5069905;28;20786;-70
2021/08/30 04:57:13;;;;;;;64.88;30.65;;;;;;;;;;5069931;28;20370;-70
2021/08/30 04:59:39;;;;;;;52.28;30.60;;;;;;;;;;5069774;28;20087;-70
2021/08/30 05:02:04;;;;;;;59.20;32.37;;;;;;;;;;5073364;28;20020;-70
2021/08/30 05:04:29;;;;;;;64.30;33.08;;;;;;;;;;5086838;28;20270;-70
2021/08/30 05:06:54;;;;;;;58.35;32.75;;;;;;;;;;5069478;28;20017;-70
2021/08/30 05:09:19;;;;;;;61.92;33.83;;;;;;;;;;5069887;28;20032;-70
2021/08/30 05:11:45;;;;;;;57.60;33.30;;;;;;;;;;5069911;28;20021;-70
2021/08/30 05:14:10;;;;;;;61.50;34.57;;;;;;;;;;5069657;28;20024;-70
2021/08/30 05:16:35;;;;;;;60.07;33.50;;;;;;;;;;5069806;28;20278;-70
2021/08/30 05:19:00;;;;;;;66.22;34.65;;;;;;;;;;5072960;28;20745;-70
2021/08/30 05:21:25;;;;;;;65.57;35.97;;;;;;;;;;5073568;28;20017;-70
2021/08/30 05:23:51;;;;;;;68.35;36.42;;;;;;;;;;5077881;28;20267;-70
2021/08/30 05:26:16;;;;;;;70.90;36.43;;;;;;;;;;5093442;28;20024;-70
2021/08/30 05:28:41;;;;;;;74.00;39.13;;;;;;;;;;5092561;28;20770;-70
2021/08/30 05:31:07;;;;;;;76.85;39.85;;;;;;;;;;5062724;28;20459;-70
2021/08/30 05:33:32;;;;;;;77.05;40.28;;;;;;;;;;5076368;28;20024;-70
2021/08/30 05:35:57;;;;;;;81.70;40.17;;;;;;;;;;5072765;28;20383;-70
2021/08/30 05:38:23;;;;;;;79.65;39.17;;;;;;;;;;5073072;28;20032;-70
2021/08/30 05:40:48;;;;;;;85.37;41.30;;;;;;;;;;5092027;28;20517;-70
2021/08/30 05:43:13;;;;;;;81.38;40.70;;;;;;;;;;5079344;28;20261;-70
2021/08/30 05:45:38;;;;;;;82.40;42.03;;;;;;;;;;5073089;28;20107;-70
2021/08/30 05:48:04;;;;;;;90.72;40.55;;;;;;;;;;5072450;28;20024;-70
2021/08/30 05:50:29;;;;;;;84.50;41.05;;;;;;;;;;5073201;28;20063;-70
2021/08/30 05:52:54;;;;;;;78.88;43.55;;;;;;;;;;5082638;28;20469;-70
2021/08/30 05:55:20;;;;;;;83.70;41.72;;;;;;;;;;5092825;28;20465;-70
2021/08/30 05:57:45;;;;;;;89.20;43.55;;;;;;;;;;5092561;28;20422;-70
2021/08/30 06:00:10;;;;;;;82.07;42.03;;;;;;;;;;5093037;28;20017;-70
2021/08/30 06:02:35;;;;;;;79.75;41.20;;;;;;;;;;5085174;28;20020;-70
2021/08/30 06:05:01;;;;;;;77.50;42.07;;;;;;;;;;5072546;28;20516;-70
2021/08/30 06:07:26;;;;;;;78.38;41.78;;;;;;;;;;5072891;28;20258;-70
2021/08/30 06:09:51;;;;;;;79.83;42.50;;;;;;;;;;5072275;28;20028;-70
2021/08/30 06:12:16;;;;;;;74.67;40.10;;;;;;;;;;5076724;28;20258;-70
2021/08/30 06:14:42;;;;;;;87.30;41.77;;;;;;;;;;5092133;28;20274;-70
2021/08/30 06:17:07;;;;;;;80.75;42.05;;;;;;;;;;5103525;22;20413;-68
2021/08/30 06:19:32;;;;;;;79.53;40.50;;;;;;;;;;5063893;28;20021;-68
2021/08/30 06:21:57;;;;;;;77.82;38.65;;;;;;;;;;5071251;28;20008;-68
2021/08/30 06:24:23;;;;;;;75.18;41.20;;;;;;;;;;5071881;28;20400;-68
2021/08/30 06:26:48;;;;;;;75.72;39.78;;;;;;;;;;5070863;28;20510;-68
2021/08/30 06:29:13;;;;;;;80.13;39.83;;;;;;;;;;5070851;28;20475;-68
2021/08/30 06:31:38;;;;;;;80.68;40.47;;;;;;;;;;5071945;28;20350;-69
2021/08/30 06:34:03;;;;;;;74.68;40.55;;;;;;;;;;5061043;28;20027;-68
2021/08/30 06:36:29;;;;;;;75.57;39.47;;;;;;;;;;5084684;28;20103;-68
2021/08/30 06:38:54;;;;;;;71.93;38.38;;;;;;;;;;5090006;28;20609;-68
2021/08/30 06:41:19;;;;;;;78.28;41.33;;;;;;;;;;5069699;28;20029;-68
2021/08/30 06:43:45;;;;;;;74.95;38.53;;;;;;;;;;5067572;28;20077;-68
2021/08/30 06:46:10;;;;;;;72.53;37.35;;;;;;;;;;5071334;28;20462;-68
2021/08/30 06:48:35;;;;;;;71.30;38.13;;;;;;;;;;5071502;28;20138;-68
2021/08/30 06:51:01;;;;;;;81.17;40.10;;;;;;;;;;5064283;28;20272;-68
2021/08/30 06:53:26;;;;;;;81.32;40.28;;;;;;;;;;5066800;28;20263;-68
2021/08/30 06:55:51;;;;;;;73.60;39.17;;;;;;;;;;5070881;28;20470;-68
2021/08/30 06:58:16;;;;;;;75.30;39.50;;;;;;;;;;5071386;28;20089;-68
2021/08/30 07:00:41;;;;;;;80.60;41.60;;;;;;;;;;5064118;28;20358;-68
2021/08/30 07:03:08;;;;;;;77.68;40.10;;;;;;;;;;5053502;28;20267;-68
2021/08/30 07:05:33;;;;;;;74.60;40.80;;;;;;;;;;5051306;28;20021;-68
2021/08/30 07:07:58;;;;;;;77.47;41.27;;;;;;;;;;5050941;28;20033;-68
2021/08/30 07:10:24;;;;;;;75.20;40.10;;;;;;;;;;5057822;28;20761;-68
2021/08/30 07:12:49;;;;;;;73.53;38.47;;;;;;;;;;5049714;28;20264;-68
2021/08/30 07:15:16;;;;;;;76.60;38.60;;;;;;;;;;5051182;28;20028;-68
2021/08/30 07:17:42;;;;;;;70.85;39.95;;;;;;;;;;5087716;23;20330;-68
2021/08/30 07:20:07;;;;;;;75.95;39.88;;;;;;;;;;5052240;28;20025;-68
2021/08/30 07:22:33;;;;;;;72.80;39.15;;;;;;;;;;5070767;28;20059;-68
2021/08/30 07:24:58;;;;;;;68.63;38.53;;;;;;;;;;5070293;28;20035;-68
2021/08/30 07:27:23;;;;;;;78.83;41.67;;;;;;;;;;5052203;28;20032;-68
2021/08/30 07:29:50;;;;;;;79.00;40.60;;;;;;;;;;5056059;28;20278;-68
2021/08/30 07:32:15;;;;;;;73.85;41.47;;;;;;;;;;5050533;28;20745;-68
2021/08/30 07:34:40;;;;;;;85.60;40.97;;;;;;;;;;5050822;28;20155;-68
2021/08/30 07:37:06;;;;;;;78.90;41.53;;;;;;;;;;5050528;28;20118;-68
2021/08/30 07:39:31;;;;;;;72.93;41.13;;;;;;;;;;5068093;28;20378;-68
2021/08/30 07:41:56;;;;;;;74.15;41.55;;;;;;;;;;5063921;28;20024;-68
2021/08/30 07:44:22;;;;;;;77.75;43.63;;;;;;;;;;5050661;28;20047;-68
2021/08/30 07:46:47;;;;;;;80.68;44.58;;;;;;;;;;5050369;28;20043;-68
2021/08/30 07:49:13;;;;;;;79.95;44.88;;;;;;;;;;5057802;28;20126;-68
2021/08/30 07:51:41;;;;;;;76.43;43.00;;;;;;;;;;5050637;28;20021;-68
2021/08/30 07:54:07;;;;;;;84.82;45.25;;;;;;;;;;5050261;28;20024;-68
2021/08/30 07:56:32;;;;;;;83.53;44.33;;;;;;;;;;5050402;28;20467;-68
2021/08/30 07:58:57;;;;;;;79.82;43.40;;;;;;;;;;5051389;28;20511;-69
2021/08/30 08:01:23;;;;;;;79.87;43.40;;;;;;;;;;5067088;28;20029;-68
2021/08/30 08:03:48;;;;;;;78.33;44.20;;;;;;;;;;5070243;28;20345;-68
2021/08/30 08:06:13;;;;;;;75.53;44.05;;;;;;;;;;5070303;28;20276;-68
2021/08/30 08:08:39;;;;;;;79.45;45.47;;;;;;;;;;5062970;28;20025;-68
2021/08/30 08:11:08;;;;;;;70.90;42.50;;;;;;;;;;5070547;28;20020;-67
2021/08/30 08:13:33;;;;;;;79.53;42.00;;;;;;;;;;5070406;28;20044;-67
2021/08/30 08:15:59;;;;;;;76.53;43.37;;;;;;;;;;5070183;28;20047;-68
2021/08/30 08:18:24;;;;;;;76.43;42.53;;;;;;;;;;5068216;28;20312;-68
2021/08/30 08:20:49;;;;;;;79.93;42.27;;;;;;;;;;5060480;28;20593;-67
2021/08/30 08:23:14;;;;;;;77.35;41.90;;;;;;;;;;5049783;28;20248;-67
2021/08/30 08:25:40;;;;;;;75.90;42.50;;;;;;;;;;5050232;28;20021;-68
2021/08/30 08:28:06;;;;;;;71.67;42.33;;;;;;;;;;5059381;28;20278;-68
2021/08/30 08:30:31;;;;;;;75.80;43.28;;;;;;;;;;5064165;28;20413;-68
2021/08/30 08:32:57;;;;;;;73.95;41.83;;;;;;;;;;5049911;28;20104;-68
2021/08/30 08:35:22;;;;;;;71.55;41.58;;;;;;;;;;5070187;28;20028;-68
2021/08/30 08:37:47;;;;;;;79.65;43.75;;;;;;;;;;5063396;28;20390;-68
2021/08/30 08:40:13;;;;;;;80.10;42.20;;;;;;;;;;5063025;28;20020;-68
2021/08/30 08:42:39;;;;;;;70.68;41.42;;;;;;;;;;5069677;28;20262;-69
2021/08/30 08:45:06;;;;;;;76.35;42.38;;;;;;;;;;5070046;28;20424;-68
2021/08/30 08:47:31;;;;;;;74.70;41.15;;;;;;;;;;5064709;28;20065;-68
2021/08/30 08:49:57;;;;;;;78.28;43.88;;;;;;;;;;5049598;28;20489;-68
2021/08/30 08:52:22;;;;;;;71.35;40.72;;;;;;;;;;5051460;28;20021;-68
2021/08/30 08:54:48;;;;;;;70.57;39.72;;;;;;;;;;5069192;28;20091;-68
2021/08/30 08:57:13;;;;;;;69.50;37.53;;;;;;;;;;5055220;28;20031;-67
2021/08/30 08:59:38;;;;;;;61.40;36.15;;;;;;;;;;5073256;28;20535;-68
2021/08/30 09:02:04;;;;;;;58.65;32.67;;;;;;;;;;5067269;28;20103;-68
2021/08/30 09:04:31;;;;;;;58.78;30.77;;;;;;;;;;5056183;28;20063;-68
2021/08/30 09:07:06;;;;;;;54.67;30.35;;;;;;;;;;5057114;28;20020;-68
2021/08/30 09:09:31;;;;;;;45.47;28.20;;;;;;;;;;5064135;28;20435;-68
2021/08/30 09:11:57;;;;;;;47.40;27.40;;;;;;;;;;5049661;28;20054;-68
2021/08/30 09:14:24;;;;;;;42.65;23.23;;;;;;;;;;5062908;28;20474;-68
2021/08/30 09:17:00;;;;;;;34.20;22.23;;;;;;;;;;5071031;28;20021;-68
2021/08/30 09:19:26;;;;;;;36.42;22.35;;;;;;;;;;5053357;28;20535;-68
2021/08/30 09:21:51;;;;;;;34.95;21.60;;;;;;;;;;5058264;28;20100;-68
2021/08/30 09:24:20;;;;;;;35.10;22.10;;;;;;;;;;5060105;28;20009;-68
2021/08/30 09:26:47;;;;;;;32.47;21.60;;;;;;;;;;5071281;28;20127;-68
2021/08/30 09:29:14;;;;;;;28.92;20.30;;;;;;;;;;5073066;28;20038;-68
2021/08/30 09:31:39;;;;;;;31.48;19.27;;;;;;;;;;5073127;28;20021;-68
2021/08/30 09:34:09;;;;;;;35.72;21.92;;;;;;;;;;5072783;28;20021;-68
2021/08/30 09:36:40;;;;;;;36.72;21.52;;;;;;;;;;5072272;28;20104;-68
2021/08/30 09:39:06;;;;;;;32.33;21.48;;;;;;;;;;5072890;28;20028;-68
2021/08/30 09:41:31;;;;;;;34.77;22.30;;;;;;;;;;5073039;28;20024;-68
2021/08/30 09:44:03;;;;;;;32.00;20.93;;;;;;;;;;5072603;28;20910;-68
2021/08/30 09:46:31;;;;;;;34.63;21.10;;;;;;;;;;5071824;28;20979;-68
2021/08/30 09:49:00;;;;;;;30.30;20.30;;;;;;;;;;5072704;28;20017;-68
2021/08/30 09:51:26;;;;;;;29.88;20.38;;;;;;;;;;5072892;28;20032;-68
2021/08/30 09:53:51;;;;;;;38.22;21.67;;;;;;;;;;5072329;28;20017;-68
2021/08/30 09:56:16;;;;;;;32.43;20.53;;;;;;;;;;5062285;28;20027;-68
2021/08/30 09:58:42;;;;;;;29.48;19.42;;;;;;;;;;5061325;28;20697;-68
2021/08/30 10:01:08;;;;;;;34.50;19.92;;;;;;;;;;5064447;28;20071;-68
2021/08/30 10:03:42;;;;;;;30.20;20.60;;;;;;;;;;5055848;28;20021;-68
2021/08/30 10:06:08;;;;;;;36.63;20.52;;;;;;;;;;5057096;28;20266;-68
2021/08/30 10:08:35;;;;;;;33.97;21.55;;;;;;;;;;5072497;28;20021;-68
2021/08/30 10:11:01;;;;;;;34.88;21.92;;;;;;;;;;5063161;28;20028;-68
2021/08/30 10:13:26;;;;;;;32.90;20.52;;;;;;;;;;5072190;28;20099;-68
2021/08/30 10:15:51;;;;;;;35.42;22.00;;;;;;;;;;5067533;28;20024;-68
2021/08/30 10:18:17;;;;;;;34.13;20.25;;;;;;;;;;5070571;28;20028;-68
2021/08/30 10:20:43;;;;;;;32.15;21.05;;;;;;;;;;5072135;28;20044;-68
2021/08/30 10:23:09;;;;;;;35.83;20.13;;;;;;;;;;5071386;28;20560;-68
2021/08/30 10:25:36;;;;;;;34.00;18.90;;;;;;;;;;5071974;28;20055;-68
2021/08/30 10:28:03;;;;;;;33.05;18.65;;;;;;;;;;5051835;28;20032;-68
2021/08/30 10:30:28;;;;;;;29.30;19.15;;;;;;;;;;5052129;28;20021;-68
2021/08/30 10:32:55;;;;;;;32.85;19.38;;;;;;;;;;5068266;28;20048;-68
2021/08/30 10:35:22;;;;;;;29.55;18.58;;;;;;;;;;5071832;28;20083;-68
2021/08/30 10:37:48;;;;;;;30.38;18.38;;;;;;;;;;5071424;28;20035;-68
2021/08/30 10:40:14;;;;;;;27.95;17.55;;;;;;;;;;5071478;28;20118;-68
2021/08/30 10:42:39;;;;;;;25.70;17.15;;;;;;;;;;5070894;28;20074;-68
2021/08/30 10:45:06;;;;;;;23.77;15.60;;;;;;;;;;5069446;28;20463;-68
2021/08/30 10:47:35;;;;;;;28.02;17.98;;;;;;;;;;5049174;28;20267;-68
2021/08/30 10:50:00;;;;;;;29.23;18.70;;;;;;;;;;5064096;28;20104;-68
2021/08/30 10:52:37;;;;;;;26.48;17.83;;;;;;;;;;5068374;28;20104;-68
2021/08/30 10:55:13;;;;;;;30.15;20.90;;;;;;;;;;5071072;28;20476;-68
2021/08/30 10:57:39;;;;;;;28.27;19.65;;;;;;;;;;5070609;28;20025;-68
2021/08/30 11:00:05;;;;;;;33.70;21.77;;;;;;;;;;5059444;28;20082;-68
2021/08/30 11:02:37;;;;;;;31.67;20.55;;;;;;;;;;5070754;28;20039;-68
2021/08/30 11:05:03;;;;;;;36.70;22.30;;;;;;;;;;5069873;28;20106;-68
2021/08/30 11:07:28;;;;;;;34.95;20.85;;;;;;;;;;5070702;28;20020;-68
2021/08/30 11:09:54;;;;;;;30.20;19.00;;;;;;;;;;5069872;28;20372;-68
2021/08/30 11:12:19;;;;;;;29.17;18.02;;;;;;;;;;5069170;28;20482;-68
2021/08/30 11:14:53;;;;;;;35.53;20.20;;;;;;;;;;5070485;28;20490;-68
2021/08/30 11:17:24;;;;;;;23.38;15.50;;;;;;;;;;5070768;28;20414;-68
2021/08/30 11:19:52;;;;;;;26.88;17.27;;;;;;;;;;5068144;28;20029;-68
2021/08/30 11:22:17;;;;;;;22.25;14.13;;;;;;;;;;5068429;28;20367;-68
2021/08/30 11:24:43;;;;;;;26.80;16.50;;;;;;;;;;5069889;28;20029;-68
2021/08/30 11:27:13;;;;;;;21.80;12.90;;;;;;;;;;5070571;28;20267;-68
2021/08/30 11:29:43;;;;;;;21.02;13.18;;;;;;;;;;5069438;28;20021;-68
2021/08/30 11:32:09;;;;;;;19.92;12.45;;;;;;;;;;5060295;28;20024;-68
2021/08/30 11:34:36;;;;;;;21.90;12.82;;;;;;;;;;5070533;28;20385;-68
2021/08/30 11:37:02;;;;;;;21.00;13.88;;;;;;;;;;5070139;28;20029;-68
2021/08/30 11:39:28;;;;;;;23.33;14.40;;;;;;;;;;5070410;28;20108;-68
2021/08/30 11:42:02;;;;;;;21.58;13.88;;;;;;;;;;5050395;28;20017;-68
2021/08/30 11:44:29;;;;;;;22.05;15.50;;;;;;;;;;5062241;28;20052;-68
2021/08/30 11:46:56;;;;;;;24.50;15.88;;;;;;;;;;5069077;28;20027;-68
2021/08/30 11:49:22;;;;;;;25.77;15.10;;;;;;;;;;5066264;28;20013;-68
2021/08/30 11:51:47;;;;;;;24.25;13.88;;;;;;;;;;5062203;28;20518;-68
2021/08/30 11:54:14;;;;;;;18.65;13.18;;;;;;;;;;5070435;28;20017;-68
2021/08/30 11:56:39;;;;;;;19.63;12.10;;;;;;;;;;5067448;28;20466;-68
2021/08/30 11:59:04;;;;;;;22.30;12.50;;;;;;;;;;5069918;28;20035;-68
2021/08/30 12:01:35;;;;;;;19.90;11.52;;;;;;;;;;5068330;28;20254;-68
2021/08/30 12:04:00;;;;;;;17.83;11.93;;;;;;;;;;5069666;28;20027;-68
2021/08/30 12:06:25;;;;;;;20.53;11.97;;;;;;;;;;5047899;28;20021;-68
2021/08/30 12:08:51;;;;;;;14.50;10.00;;;;;;;;;;5049915;28;20267;-68
2021/08/30 12:11:18;;;;;;;18.80;10.60;;;;;;;;;;5050324;28;20346;-68
2021/08/30 12:16:21;;;;;;;16.50;10.38;;;;;;;;;;5079533;22;20024;-70
2021/08/30 12:18:48;;;;;;;16.52;11.10;;;;;;;;;;5103548;28;20235;-70
2021/08/30 12:21:13;;;;;;;15.35;10.70;;;;;;;;;;5100410;28;20359;-71
2021/08/30 12:23:38;;;;;;;17.20;12.20;;;;;;;;;;5088583;28;20126;-70
2021/08/30 12:26:03;;;;;;;20.50;11.83;;;;;;;;;;5091162;28;20016;-71
2021/08/30 12:28:29;;;;;;;19.87;10.53;;;;;;;;;;5094818;28;20250;-70
2021/08/30 12:30:55;;;;;;;17.17;10.65;;;;;;;;;;5086948;28;20633;-70
2021/08/30 12:33:21;;;;;;;17.13;10.70;;;;;;;;;;5077730;28;20028;-70
2021/08/30 12:35:50;;;;;;;12.57;9.07;;;;;;;;;;5083210;28;20388;-70
2021/08/30 12:38:16;;;;;;;15.03;9.67;;;;;;;;;;5074682;28;20019;-70
2021/08/30 12:40:42;;;;;;;13.30;9.27;;;;;;;;;;5074597;28;20016;-70
2021/08/30 12:43:08;;;;;;;15.55;8.93;;;;;;;;;;5075002;28;20035;-71
2021/08/30 12:45:34;;;;;;;13.15;8.75;;;;;;;;;;5095048;28;20016;-71
2021/08/30 12:47:59;;;;;;;16.65;8.82;;;;;;;;;;5094601;28;20020;-70
2021/08/30 12:50:25;;;;;;;17.15;9.82;;;;;;;;;;5092098;28;20035;-71
2021/08/30 12:52:50;;;;;;;15.38;9.18;;;;;;;;;;5074582;28;20024;-70
2021/08/30 12:55:16;;;;;;;14.68;9.65;;;;;;;;;;5074108;28;20394;-71
2021/08/30 12:57:41;;;;;;;19.38;10.65;;;;;;;;;;5054693;28;20017;-70
2021/08/30 13:00:10;;;;;;;17.25;10.07;;;;;;;;;;5064375;28;20021;-70
2021/08/30 13:02:35;;;;;;;22.52;10.93;;;;;;;;;;5081069;28;20012;-70
2021/08/30 13:05:00;;;;;;;13.57;9.13;;;;;;;;;;5092881;28;20073;-70
2021/08/30 13:07:26;;;;;;;15.37;9.33;;;;;;;;;;5074353;28;20725;-70
2021/08/30 13:09:51;;;;;;;18.65;9.52;;;;;;;;;;5074044;28;20259;-70
2021/08/30 13:12:16;;;;;;;14.23;9.48;;;;;;;;;;5073483;28;20104;-71
2021/08/30 13:14:41;;;;;;;20.08;8.70;;;;;;;;;;5074202;28;20032;-70
2021/08/30 13:17:06;;;;;;;23.10;11.00;;;;;;;;;;5089201;28;20027;-70
2021/08/30 13:19:32;;;;;;;14.20;9.55;;;;;;;;;;5094754;28;20271;-70
2021/08/30 13:22:00;;;;;;;14.38;9.27;;;;;;;;;;5078486;28;20432;-70
2021/08/30 13:24:25;;;;;;;12.65;8.95;;;;;;;;;;5073687;28;20462;-70
2021/08/30 13:26:51;;;;;;;17.15;9.65;;;;;;;;;;5083547;28;20035;-70
2021/08/30 13:29:16;;;;;;;17.87;9.67;;;;;;;;;;5094300;28;20024;-70
2021/08/30 13:31:41;;;;;;;17.20;9.27;;;;;;;;;;5081294;28;20305;-70
2021/08/30 13:34:06;;;;;;;14.73;9.53;;;;;;;;;;5073817;28;20454;-70
2021/08/30 13:36:31;;;;;;;15.17;10.13;;;;;;;;;;5073602;28;20029;-70
2021/08/30 13:38:57;;;;;;;12.48;9.20;;;;;;;;;;5082616;28;20262;-70
2021/08/30 13:41:22;;;;;;;17.57;9.57;;;;;;;;;;5085381;28;20033;-71
2021/08/30 13:43:47;;;;;;;15.30;9.17;;;;;;;;;;5073459;28;20277;-70
2021/08/30 13:46:12;;;;;;;15.73;9.53;;;;;;;;;;5073599;28;20056;-70
2021/08/30 13:48:41;;;;;;;20.83;10.33;;;;;;;;;;5073678;28;20254;-70
2021/08/30 13:51:07;;;;;;;14.55;9.18;;;;;;;;;;5074788;28;20278;-70
2021/08/30 13:53:32;;;;;;;13.90;9.25;;;;;;;;;;5073179;28;20356;-70
2021/08/30 13:55:57;;;;;;;18.58;9.30;;;;;;;;;;5073255;28;20024;-70
2021/08/30 13:58:23;;;;;;;19.03;10.60;;;;;;;;;;5073387;28;20449;-70
2021/08/30 14:00:48;;;;;;;12.80;9.60;;;;;;;;;;5073113;28;20312;-70
2021/08/30 14:03:13;;;;;;;15.67;9.07;;;;;;;;;;5087791;28;20020;-71
2021/08/30 14:05:38;;;;;;;18.57;10.33;;;;;;;;;;5094712;28;20616;-70
2021/08/30 14:08:04;;;;;;;14.10;8.50;;;;;;;;;;5094790;28;20341;-70
2021/08/30 14:10:29;;;;;;;13.00;8.88;;;;;;;;;;5093652;28;20258;-70
2021/08/30 14:12:54;;;;;;;12.35;8.40;;;;;;;;;;5073993;28;20111;-70
2021/08/30 14:15:21;;;;;;;11.63;8.33;;;;;;;;;;5081211;28;20046;-70
2021/08/30 14:17:46;;;;;;;14.43;8.48;;;;;;;;;;5092617;28;20312;-70